Spokane, Washington
Current Conditions -  °F | °C
As of 8:53 PM on Wednesday 17 Dec 2014 (Local Time) from KSFF Reporting Station
Overcast Overcast  
Wind Chill:   Ceiling: 5500
Heat Index:   Visibility: 10mi
Dew Point:   Wind: 0mph
Humidity: 86%   Direction: NA
Pressure: 29.96"   Gusts: NA
Location:  47.66°N, 117.41°W
Report Text: KSFF 180453Z AUTO 00000KT 10SM SCT047 OVC055 03/01 A2996 RMK AO2 SLP158 T00280006
Loading
Personal Weather Stations






























Interactive Weather Map New forecast layout! Learn more

10-Day Weather Forecast

Advertisements
Track Severe Weather on mobile